Time;durP1;ratioP1;P1;durP2;ratioP2;P2;SDS_P1;SDS_P2;PMS_P1;PMS_P2;Temp;Humidity;BMP_temperature;BMP_pressure;BME280_temperature;BME280_humidity;BME280_pressure;Samples;Min_cycle;Max_cycle;Signal;HPM_P1;HPM_P2
2023/05/05 00:02:54;;;;;;;;;;;;;;;;;;;;;
2023/05/05 00:06:56;;;;;;;25.10;15.30;;;;;;;8.48;60.29;100765.41;125704;1302;115861;-66
2023/05/05 00:10:51;;;;;;;;;;;;;;;;;;;;;
2023/05/05 00:14:41;;;;;;;;;;;;;;;;;;;;;
2023/05/05 00:18:46;;;;;;;27.10;15.60;;;;;;;8.37;60.79;100757.92;126714;1292;636664;-65
2023/05/05 00:22:45;;;;;;;;;;;;;;;;;;;;;
2023/05/05 00:26:41;;;;;;;;;;;;;;;;;;;;;
2023/05/05 00:30:34;;;;;;;24.10;14.10;;;;;;;8.29;61.39;100758.39;127770;1283;114984;-65
2023/05/05 00:34:30;;;;;;;24.50;14.80;;;;;;;8.25;61.37;100752.13;123762;1306;115497;-65
2023/05/05 00:38:26;;;;;;;25.10;15.30;;;;;;;8.20;61.31;100752.98;126793;1310;114813;-65
2023/05/05 00:42:22;;;;;;;22.70;13.60;;;;;;;8.15;61.33;100747.43;126042;1293;114907;-64
2023/05/05 00:46:15;;;;;;;;;;;;;;;;;;;;;
2023/05/05 00:50:09;;;;;;;23.40;14.50;;;;;;;8.09;61.72;100747.27;125367;1307;115250;-65
2023/05/05 00:54:00;;;;;;;;;;;;;;;;;;;;;
2023/05/05 00:58:13;;;;;;;;;;;;;;;;;;;;;
2023/05/05 01:02:17;;;;;;;27.10;16.10;;;;;;;8.01;61.71;100746.83;128947;1284;129005;-64
2023/05/05 01:06:39;;;;;;;28.70;17.00;;;;;;;8.03;61.73;100743.18;127604;1285;115365;-64
2023/05/05 01:10:39;;;;;;;;;;;;;;;;;;;;;
2023/05/05 01:14:51;;;;;;;28.10;15.50;;;;;;;8.11;62.14;100738.70;127774;1294;114945;-65
2023/05/05 01:19:03;;;;;;;25.40;15.50;;;;;;;8.11;62.04;100736.20;127568;1286;114844;-68
2023/05/05 01:23:07;;;;;;;27.20;15.80;;;;;;;8.10;62.13;100731.23;127555;1304;127858;-66
2023/05/05 01:27:11;;;;;;;26.60;14.20;;;;;;;8.10;61.94;100733.02;126197;1314;115489;-64
2023/05/05 01:31:40;;;;;;;24.30;15.30;;;;;;;8.12;61.88;100727.80;125732;1299;115074;-65
2023/05/05 01:35:43;;;;;;;26.10;14.50;;;;;;;8.15;62.27;100723.59;125643;1307;115630;-64
2023/05/05 01:39:45;;;;;;;35.90;16.30;;;;;;;8.16;62.08;100725.53;126749;1297;114948;-65
2023/05/05 01:43:46;;;;;;;27.20;14.60;;;;;;;8.18;61.92;100723.66;126370;1305;128460;-64
2023/05/05 01:47:36;;;;;;;27.70;15.20;;;;;;;8.21;62.40;100717.86;125664;1304;115280;-65
2023/05/05 01:51:37;;;;;;;26.30;15.70;;;;;;;8.23;62.07;100719.42;125736;1311;114956;-65
2023/05/05 01:59:59;;;;;;;28.40;16.20;;;;;;;8.28;62.07;100712.48;126216;1295;636922;-65
2023/05/05 02:04:01;;;;;;;23.40;15.00;;;;;;;8.27;62.14;100715.73;127837;1280;128701;-64
2023/05/05 02:08:04;;;;;;;25.40;15.00;;;;;;;8.26;62.23;100719.16;126283;1296;115206;-66
2023/05/05 02:12:05;;;;;;;30.30;16.00;;;;;;;8.23;62.40;100718.55;121832;1300;5421901;-65
2023/05/05 02:15:58;;;;;;;;;;;;;;;;;;;;;
2023/05/05 02:24:26;;;;;;;23.60;15.40;;;;;;;8.20;62.19;100711.52;125474;1310;642037;-65
2023/05/05 02:28:28;;;;;;;30.90;16.40;;;;;;;8.16;62.30;100714.84;128002;1281;128838;-65
2023/05/05 02:32:03;;;;;;;31.10;15.50;;;;;;;8.13;62.24;100720.45;127106;1308;116641;-65
2023/05/05 02:35:49;;;;;;;;;;;;;;;8.10;62.28;100713.80;127277;1294;114738;-65
2023/05/05 02:39:57;;;;;;;28.20;15.00;;;;;;;8.07;62.48;100711.25;122526;1299;115454;-65
2023/05/05 02:44:01;;;;;;;27.60;15.10;;;;;;;8.05;62.80;100711.99;126348;1304;114913;-64
2023/05/05 02:56:26;;;;;;;30.20;15.60;;;;;;;8.00;62.81;100712.52;126623;1295;636991;-64
2023/05/05 03:00:38;;;;;;;22.20;14.70;;;;;;;7.98;62.77;100712.60;128792;1275;127597;-67
2023/05/05 03:08:59;;;;;;;27.10;16.30;;;;;;;7.95;62.99;100719.27;124674;1294;5509317;-67
2023/05/05 03:13:01;;;;;;;26.40;15.30;;;;;;;7.94;62.95;100724.83;127759;1281;114950;-67
2023/05/05 03:17:05;;;;;;;28.30;15.20;;;;;;;7.94;63.04;100726.95;127771;1302;114854;-66
2023/05/05 03:20:51;;;;;;;31.40;17.00;;;;;;;7.95;63.30;100730.30;126320;1295;129712;-65
2023/05/05 03:24:53;;;;;;;31.40;18.10;;;;;;;7.96;63.31;100727.77;126222;1307;115296;-65
2023/05/05 03:28:54;;;;;;;31.20;16.30;;;;;;;7.96;63.25;100729.70;125701;1304;114975;-64
2023/05/05 03:32:47;;;;;;;;;;;;;;;;;;;;;
2023/05/05 03:41:09;;;;;;;29.60;16.40;;;;;;;8.06;63.53;100732.06;126382;1295;636124;-69
2023/05/05 03:44:56;;;;;;;;;;;;;;;;;;;;;
2023/05/05 03:48:44;;;;;;;;;;;;;;;;;;;;;
2023/05/05 03:52:32;;;;;;;;;;;;;;;;;;;;;
2023/05/05 03:56:19;;;;;;;;;;;;;;;;;;;;;
2023/05/05 04:00:26;;;;;;;21.20;14.40;;;;;;;8.28;63.55;100730.85;126403;1307;114945;-65
2023/05/05 04:04:20;;;;;;;;;;;;;;;;;;;;;
2023/05/05 04:08:04;;;;;;;;;;;;;;;;;;;;;
2023/05/05 04:16:23;;;;;;;;;;;;;;;;;;;;;
2023/05/05 04:20:27;;;;;;;23.80;15.30;;;;;;;8.68;63.67;100731.66;127926;1284;128748;-64
2023/05/05 04:24:30;;;;;;;26.40;15.70;;;;;;;8.75;63.46;100737.63;126282;1292;114849;-66
2023/05/05 04:28:22;;;;;;;24.20;15.20;;;;;;;8.84;63.55;100734.31;122489;1311;5439865;-66
2023/05/05 04:32:23;;;;;;;;;;;;;;;;;;;;;
2023/05/05 04:36:23;;;;;;;23.10;15.30;;;;;;;8.94;63.46;100737.50;124572;1313;114943;-65
2023/05/05 04:44:33;;;;;;;;;;;;;;;;;;;;;
2023/05/05 04:48:38;;;;;;;23.60;14.80;;;;;;;9.27;63.44;100748.98;127813;1284;128904;-64
2023/05/05 04:52:36;;;;;;;24.60;15.70;;;;;;;9.71;63.87;100751.42;126969;1292;115282;-64
2023/05/05 04:56:05;;;;;;;;;;;;;;;;;;;;;
2023/05/05 05:00:23;;;;;;;21.20;13.30;;;;;;;11.73;63.23;100750.35;125610;1304;114975;-64
2023/05/05 05:04:22;;;;;;;;;;;;;;;;;;;;;
2023/05/05 05:12:43;;;;;;;21.50;13.10;;;;;;;15.86;58.14;100738.37;126247;1299;636843;-65
2023/05/05 05:16:37;;;;;;;18.90;12.50;;;;;;;16.72;57.04;100731.41;128032;1286;128016;-65
2023/05/05 05:20:33;;;;;;;18.40;12.20;;;;;;;17.30;55.06;100731.98;128521;1275;115324;-65
2023/05/05 05:28:48;;;;;;;19.20;12.30;;;;;;;17.81;54.15;100733.86;125971;1303;636380;-67
2023/05/05 05:32:51;;;;;;;17.40;12.20;;;;;;;18.17;52.72;100740.52;128796;1277;127919;-65
2023/05/05 05:36:53;;;;;;;21.70;12.50;;;;;;;18.50;51.91;100739.66;127469;1286;115337;-66
2023/05/05 05:40:57;;;;;;;17.40;11.90;;;;;;;18.78;50.83;100748.02;122345;1309;5435378;-66
2023/05/05 05:45:00;;;;;;;17.90;10.80;;;;;;;18.89;50.03;100752.86;125196;1308;115001;-65
2023/05/05 05:49:01;;;;;;;;;;;;;;;;;;;;;
2023/05/05 05:52:55;;;;;;;;;;;;;;;;;;;;;
2023/05/05 05:57:15;;;;;;;;;;;;;;;;;;;;;
2023/05/05 06:01:03;;;;;;;22.10;12.90;;;;;;;19.43;48.18;100760.56;127704;1299;127573;-66
2023/05/05 06:04:58;;;;;;;21.30;11.90;;;;;;;19.43;47.03;100760.42;126264;1295;116511;-65
2023/05/05 06:08:51;;;;;;;20.60;12.00;;;;;;;19.39;47.36;100763.80;126306;1300;114977;-66
2023/05/05 06:12:50;;;;;;;;;;;;;;;;;;;;;
2023/05/05 06:16:35;;;;;;;17.30;11.70;;;;;;;19.75;46.64;100766.77;125081;1321;114812;-67
2023/05/05 06:20:29;;;;;;;;;;;;;;;;;;;;;
2023/05/05 06:23:49;;;;;;;24.10;11.90;;;;;;;21.04;45.96;100761.66;123242;1325;129978;-66
2023/05/05 06:27:12;;;;;;;22.20;11.40;;;;;;;21.60;44.83;100758.55;123146;1327;115775;-64
2023/05/05 06:30:31;;;;;;;16.60;10.90;;;;;;;22.15;44.42;100756.71;123136;1336;114993;-65
2023/05/05 06:33:32;;;;;;;12.70;8.60;;;;;;;22.59;43.22;100758.55;123235;1336;114836;-67
2023/05/05 06:36:32;;;;;;;14.20;9.50;;;;;;;22.96;43.15;100754.85;123502;1325;115018;-66
2023/05/05 06:40:11;;;;;;;12.90;9.90;;;;;;;23.27;42.39;100756.72;124513;1313;115058;-65
2023/05/05 06:43:56;;;;;;;21.30;11.20;;;;;;;23.52;41.79;100753.73;125512;1318;129896;-65
2023/05/05 06:47:40;;;;;;;13.80;9.90;;;;;;;23.59;40.44;100758.03;124894;1323;115528;-64
2023/05/05 06:50:44;;;;;;;13.90;10.20;;;;;;;23.60;40.24;100757.03;125398;1306;114962;-66
2023/05/05 06:53:56;;;;;;;12.80;9.70;;;;;;;23.60;39.98;100761.42;125223;1308;114997;-66
2023/05/05 06:57:34;;;;;;;15.00;9.30;;;;;;;23.65;39.27;100765.60;125757;1301;115029;-66
2023/05/05 07:00:58;;;;;;;15.00;9.80;;;;;;;23.59;38.87;100759.83;126110;1286;129612;-67
2023/05/05 07:04:05;;;;;;;11.80;8.90;;;;;;;23.34;37.89;100760.61;126948;1286;114822;-66
2023/05/05 07:07:46;;;;;;;12.80;9.50;;;;;;;23.24;38.49;100759.92;127146;1292;114840;-65
2023/05/05 07:11:09;;;;;;;15.90;8.50;;;;;;;23.26;37.73;100758.58;125950;1298;114942;-58
2023/05/05 07:14:56;;;;;;;13.50;8.20;;;;;;;23.36;37.63;100758.56;126082;1298;115012;-62
2023/05/05 07:18:19;;;;;;;12.70;7.80;;;;;;;23.80;38.23;100754.36;125408;1301;128947;-59
2023/05/05 07:22:03;;;;;;;11.60;8.30;;;;;;;24.30;37.66;100754.48;125592;1308;116519;-59
2023/05/05 07:25:59;;;;;;;12.80;8.80;;;;;;;24.23;36.79;100752.66;125881;1304;114789;-59
2023/05/05 07:29:32;;;;;;;10.60;8.00;;;;;;;24.29;36.47;100753.90;125897;1301;115097;-58
2023/05/05 07:33:19;;;;;;;16.60;8.50;;;;;;;24.48;36.53;100752.30;125958;1302;115369;-57
2023/05/05 07:37:20;;;;;;;10.10;7.60;;;;;;;24.66;36.27;100746.81;125329;1306;129847;-59
2023/05/05 07:41:14;;;;;;;;;;;;;;;;;;;;;
2023/05/05 07:44:58;;;;;;;;;;;;;;;;;;;;;
2023/05/05 07:48:52;;;;;;;9.80;6.90;;;;;;;25.18;35.68;100738.80;126308;1292;636623;-61
2023/05/05 07:52:44;;;;;;;;;;;;;;;;;;;;;
2023/05/05 07:56:43;;;;;;;9.60;6.90;;;;;;;26.00;34.46;100739.89;128212;1279;115004;-60
2023/05/05 07:59:46;;;;;;;12.40;6.50;;;;;;;26.36;34.04;100741.16;127114;1296;114897;-59
2023/05/05 08:03:22;;;;;;;;;;;;;;;;;;;;;
2023/05/05 08:06:59;;;;;;;8.80;6.20;;;;;;;26.60;33.42;100740.34;129180;1282;114988;-60
2023/05/05 08:10:53;;;;;;;7.80;6.40;;;;;;;26.94;33.16;100737.67;128455;1274;120379;-61
2023/05/05 08:14:59;;;;;;;9.20;6.30;;;;;;;26.91;31.77;100736.02;127446;1300;114888;-64
2023/05/05 08:18:37;;;;;;;;;;;;;;;;;;;;;
2023/05/05 08:22:22;;;;;;;13.80;5.80;;;;;;;26.35;31.71;100732.04;125738;1297;114843;-64
2023/05/05 08:25:22;;;;;;;8.30;5.10;;;;;;;26.33;31.65;100735.23;125902;1310;114794;-58
2023/05/05 08:29:22;;;;;;;;;;;;;;;;;;;;;
2023/05/05 08:32:39;;;;;;;11.10;5.20;;;;;;;26.52;31.14;100736.66;125186;1313;121077;-59
2023/05/05 08:36:20;;;;;;;;;;;;;;;;;;;;;
2023/05/05 08:40:20;;;;;;;;;;;;;;;;;;;;;
2023/05/05 08:48:27;;;;;;;10.70;5.70;;;;;;;27.64;30.69;100734.05;126102;1305;636022;-67
2023/05/05 08:52:14;;;;;;;5.50;4.50;;;;;;;27.59;29.64;100734.37;128683;1275;120037;-66
2023/05/05 08:56:08;;;;;;;11.90;4.90;;;;;;;27.32;29.64;100730.72;128683;1273;114819;-59
2023/05/05 09:00:01;;;;;;;;;;;;;;;;;;;;;
2023/05/05 09:03:56;;;;;;;;;;;;;;;;;;;;;
2023/05/05 09:07:53;;;;;;;6.90;3.70;;;;;;;25.80;28.66;100721.70;126781;1304;114916;-58
2023/05/05 09:11:30;;;;;;;;;;;;;;;;;;;;;
2023/05/05 09:15:04;;;;;;;;;;;;;;;;;;;;;
2023/05/05 09:18:48;;;;;;;;;;;;;;;;;;;;;
2023/05/05 09:22:11;;;;;;;6.60;4.50;;;;;;;24.40;27.58;100716.08;125354;1315;114871;-59
2023/05/05 09:25:33;;;;;;;6.70;3.50;;;;;;;24.09;28.07;100720.66;124578;1326;114963;-59
2023/05/05 09:29:31;;;;;;;9.60;4.40;;;;;;;23.93;28.37;100714.33;124608;1310;114965;-60
2023/05/05 09:33:44;;;;;;;;;;;;;;;;;;;;;
2023/05/05 09:37:31;;;;;;;7.70;3.70;;;;;;;23.47;28.06;100711.20;124615;1314;115327;-58
2023/05/05 09:41:26;;;;;;;6.60;4.10;;;;;;;23.26;28.15;100716.01;124790;1322;114867;-59
2023/05/05 09:45:36;;;;;;;5.80;3.80;;;;;;;22.99;28.61;100717.80;124470;1310;114976;-59
2023/05/05 09:49:25;;;;;;;6.70;4.10;;;;;;;22.86;28.84;100711.33;124540;1316;115073;-59
2023/05/05 09:53:19;;;;;;;6.40;3.70;;;;;;;22.70;28.90;100710.48;125137;1311;128732;-59
2023/05/05 09:57:13;;;;;;;;;;;;;;;;;;;;;
2023/05/05 10:01:19;;;;;;;8.00;3.40;;;;;;;22.54;29.43;100709.46;124525;1323;115401;-61
2023/05/05 10:22:56;;;;;;;9.80;4.60;;;;;;;21.77;29.57;100700.44;126328;1295;635596;-60
2023/05/05 10:26:33;;;;;;;;;;;;;;;;;;;;;
2023/05/05 10:30:27;;;;;;;6.80;3.60;;;;;;;21.37;30.04;100698.93;127757;1278;116416;-69
2023/05/05 10:34:25;;;;;;;7.10;4.00;;;;;;;21.23;30.20;100693.92;129077;1270;114932;-60
2023/05/05 10:37:59;;;;;;;4.20;3.40;;;;;;;21.19;29.96;100691.61;124862;1270;114931;-61
2023/05/05 10:41:04;;;;;;;7.50;4.40;;;;;;;21.09;30.11;100686.63;128561;1274;114925;-61
2023/05/05 10:44:50;;;;;;;;;;;;;;;;;;;;;
2023/05/05 10:48:12;;;;;;;;;;;;;;;;;;;;;
2023/05/05 10:52:18;;;;;;;6.60;3.80;;;;;;;20.98;30.78;100678.52;127992;1280;115233;-59
2023/05/05 10:55:58;;;;;;;5.40;3.40;;;;;;;20.96;31.35;100679.07;127557;1286;114891;-59
2023/05/05 11:00:10;;;;;;;;;;;;;;;;;;;;;
2023/05/05 11:03:50;;;;;;;;;;;;;;;;;;;;;
2023/05/05 11:07:50;;;;;;;7.20;3.50;;;;;;;21.07;30.93;100673.34;127755;1285;126806;-63
2023/05/05 11:11:34;;;;;;;4.70;3.00;;;;;;;21.02;30.93;100667.61;128187;1283;115418;-59
2023/05/05 11:15:17;;;;;;;8.10;3.40;;;;;;;21.06;31.41;100668.95;129044;1277;114881;-59
2023/05/05 11:19:16;;;;;;;5.00;3.60;;;;;;;21.10;31.23;100664.21;129140;1287;114734;-60
2023/05/05 11:23:06;;;;;;;4.90;2.90;;;;;;;21.09;31.01;100659.73;128703;1287;114967;-60
2023/05/05 11:27:16;;;;;;;4.80;3.10;;;;;;;21.09;30.73;100656.86;127978;1277;128795;-60
2023/05/05 11:30:22;;;;;;;7.40;3.30;;;;;;;21.00;30.79;100653.10;127991;1278;115460;-68
2023/05/05 11:33:36;;;;;;;6.30;3.10;;;;;;;20.97;31.11;100651.95;128239;1279;114858;-67
2023/05/05 11:36:48;;;;;;;9.80;3.10;;;;;;;20.99;31.29;100638.48;128328;1279;114827;-68
2023/05/05 11:40:23;;;;;;;5.20;3.30;;;;;;;21.02;31.13;100640.03;128467;1279;114836;-67
2023/05/05 11:43:46;;;;;;;6.20;3.40;;;;;;;21.01;30.59;100639.77;127593;1280;127943;-70
2023/05/05 11:47:20;;;;;;;4.10;2.80;;;;;;;20.91;30.55;100639.92;127924;1280;115473;-70
2023/05/05 11:50:46;;;;;;;9.50;3.10;;;;;;;20.88;30.26;100637.45;127697;1283;114898;-68
2023/05/05 11:54:00;;;;;;;5.80;3.20;;;;;;;20.84;30.45;100635.23;127860;1283;114809;-68
2023/05/05 11:57:16;;;;;;;7.30;3.00;;;;;;;20.80;31.10;100629.05;127618;1288;114951;-68
2023/05/05 12:00:32;;;;;;;5.00;2.80;;;;;;;20.80;31.17;100631.63;128319;1280;127722;-69
2023/05/05 12:04:01;;;;;;;6.50;3.20;;;;;;;20.81;30.86;100629.71;129053;1271;116355;-66
2023/05/05 12:07:30;;;;;;;6.90;2.80;;;;;;;20.84;31.18;100628.70;129081;1271;115120;-66
2023/05/05 12:10:42;;;;;;;3.60;2.40;;;;;;;20.85;31.10;100626.45;129388;1265;115445;-67
2023/05/05 12:14:13;;;;;;;4.70;2.60;;;;;;;20.82;31.10;100626.14;128986;1289;114885;-69
2023/05/05 12:18:08;;;;;;;5.30;2.70;;;;;;;20.81;31.35;100624.13;129274;1271;129874;-67
2023/05/05 12:21:54;;;;;;;3.10;2.70;;;;;;;20.81;31.32;100620.31;129411;1266;115180;-66
2023/05/05 12:25:48;;;;;;;5.20;2.60;;;;;;;20.81;31.46;100622.06;129164;1276;114961;-66
2023/05/05 12:29:28;;;;;;;;;;;;;;;;;;;;;
2023/05/05 12:33:21;;;;;;;4.40;2.60;;;;;;;20.85;31.34;100612.27;127266;1280;115594;-67
2023/05/05 12:37:23;;;;;;;3.90;2.60;;;;;;;20.96;31.62;100614.25;126703;1295;127733;-66
2023/05/05 12:41:21;;;;;;;;;;;;;;;;;;;;;
2023/05/05 12:45:20;;;;;;;3.70;2.30;;;;;;;21.30;31.55;100617.23;126396;1313;116568;-68
2023/05/05 12:49:07;;;;;;;;;;;;;;;;;;;;;
2023/05/05 12:52:54;;;;;;;3.20;2.70;;;;;;;21.45;31.16;100612.24;124860;1317;114945;-68
2023/05/05 12:56:52;;;;;;;4.00;2.50;;;;;;;21.52;31.12;100608.73;124853;1322;128170;-68
2023/05/05 13:00:28;;;;;;;3.40;2.40;;;;;;;21.55;31.21;100608.46;125604;1319;115367;-69
2023/05/05 13:04:37;;;;;;;6.90;2.60;;;;;;;21.54;31.04;100608.52;125409;1321;115009;-69
2023/05/05 13:08:28;;;;;;;4.70;2.50;;;;;;;21.41;30.71;100604.64;126384;1292;115067;-69
2023/05/05 13:12:26;;;;;;;7.90;3.00;;;;;;;21.34;30.97;100594.02;127187;1305;116661;-67
2023/05/05 13:16:06;;;;;;;7.90;2.60;;;;;;;21.30;30.96;100590.89;127321;1288;128685;-68
2023/05/05 13:20:08;;;;;;;7.10;2.80;;;;;;;21.29;31.13;100588.05;126985;1292;114805;-68
2023/05/05 13:24:02;;;;;;;4.60;2.60;;;;;;;21.26;30.95;100587.81;127713;1301;114830;-69
2023/05/05 13:27:54;;;;;;;;;;;;;;;;;;;;;
2023/05/05 13:31:37;;;;;;;4.80;2.90;;;;;;;21.14;30.75;100578.83;127556;1296;114881;-69
2023/05/05 13:35:27;;;;;;;2.70;2.30;;;;;;;21.08;30.98;100582.99;127621;1302;128984;-69
2023/05/05 13:39:14;;;;;;;3.20;2.20;;;;;;;21.04;30.89;100574.84;126781;1285;116353;-68
2023/05/05 13:42:57;;;;;;;;;;;;;;;;;;;;;
2023/05/05 13:46:49;;;;;;;7.30;2.90;;;;;;;21.02;31.16;100571.23;126618;1308;114842;-65
2023/05/05 13:50:28;;;;;;;6.00;2.90;;;;;;;21.02;31.36;100562.52;126084;1297;114889;-70
2023/05/05 13:54:30;;;;;;;5.20;2.50;;;;;;;21.03;31.08;100564.42;126333;1295;129711;-70
2023/05/05 13:58:16;;;;;;;;;;;;;;;;;;;;;
2023/05/05 14:02:04;;;;;;;;;;;;;;;;;;;;;
2023/05/05 14:05:45;;;;;;;;;;;;;;;;;;;;;
2023/05/05 14:09:32;;;;;;;;;;;;;;;;;;;;;
2023/05/05 14:13:16;;;;;;;;;;;;;;;;;;;;;
2023/05/05 14:21:06;;;;;;;2.60;2.20;;;;;;;21.16;31.37;100537.98;126463;1296;635963;-69
2023/05/05 14:25:01;;;;;;;;;;;;;;;;;;;;;
2023/05/05 14:29:05;;;;;;;7.70;3.80;;;;;;;21.19;31.35;100533.35;128791;1277;115195;-68
2023/05/05 14:36:13;;;;;;;2.60;2.20;;;;;;;21.22;31.40;100528.14;122300;1295;114954;-67
2023/05/05 14:40:29;;;;;;;;;;;;;;;;;;;;;
2023/05/05 14:43:33;;;;;;;4.60;2.20;;;;;;;21.24;31.36;100526.38;125754;1317;114897;-69
2023/05/05 14:47:14;;;;;;;;;;;;;;;;;;;;;
2023/05/05 14:50:29;;;;;;;5.20;2.50;;;;;;;21.19;31.00;100530.42;125918;1302;115403;-68
2023/05/05 14:54:01;;;;;;;5.60;2.50;;;;;;;21.17;31.02;100521.36;125886;1308;114949;-68
2023/05/05 15:02:12;;;;;;;4.50;2.50;;;;;;;21.21;31.23;100519.91;126389;1295;635405;-68
2023/05/05 15:06:16;;;;;;;5.20;2.50;;;;;;;21.21;31.26;100524.23;128925;1275;128297;-66
2023/05/05 15:10:09;;;;;;;4.80;2.60;;;;;;;21.21;30.88;100522.26;128284;1278;115388;-67
2023/05/05 15:14:11;;;;;;;3.30;2.00;;;;;;;21.21;31.04;100518.48;128346;1275;114915;-67
2023/05/05 15:17:41;;;;;;;4.90;2.20;;;;;;;21.25;30.84;100518.48;125970;1277;114906;-69
2023/05/05 15:21:51;;;;;;;3.10;2.40;;;;;;;21.27;30.91;100513.59;128069;1284;114904;-67
2023/05/05 15:25:42;;;;;;;3.20;2.50;;;;;;;21.27;30.71;100511.17;127224;1306;114861;-67
2023/05/05 15:29:31;;;;;;;;;;;;;;;;;;;;;
2023/05/05 15:33:38;;;;;;;;;;;;;;;;;;;;;
2023/05/05 15:37:31;;;;;;;;;;;;;;;;;;;;;
2023/05/05 15:41:28;;;;;;;3.00;2.40;;;;;;;20.85;30.48;100503.55;126169;1301;115350;-66
2023/05/05 15:44:50;;;;;;;4.40;2.70;;;;;;;20.77;30.98;100502.44;124939;1323;115219;-65
2023/05/05 15:48:39;;;;;;;;;;;;;;;;;;;;;
2023/05/05 15:52:29;;;;;;;5.90;2.70;;;;;;;20.65;30.69;100501.08;126314;1292;115475;-66
2023/05/05 15:56:14;;;;;;;4.60;2.00;;;;;;;20.63;30.63;100499.85;126079;1301;114875;-66
2023/05/05 16:04:06;;;;;;;3.90;2.50;;;;;;;20.64;30.69;100496.33;126477;1299;635855;-68
2023/05/05 16:08:08;;;;;;;8.10;4.80;;;;;;;20.62;30.81;100497.23;129268;1267;128401;-67
2023/05/05 16:11:53;;;;;;;;;;;;;;;;;;;;;
2023/05/05 16:15:57;;;;;;;5.30;2.30;;;;;;;20.53;30.89;100496.04;128596;1281;114926;-69
2023/05/05 16:19:49;;;;;;;4.00;2.20;;;;;;;20.47;30.93;100487.45;124918;1295;114993;-67
2023/05/05 16:23:35;;;;;;;3.50;2.40;;;;;;;20.39;31.01;100484.22;127638;1301;114870;-66
2023/05/05 16:27:23;;;;;;;;;;;;;;;;;;;;;
2023/05/05 16:31:25;;;;;;;3.60;2.50;;;;;;;20.25;31.17;100485.44;126312;1298;129793;-67
2023/05/05 16:34:49;;;;;;;5.10;2.70;;;;;;;20.17;31.25;100482.65;125736;1298;116472;-67
2023/05/05 16:38:44;;;;;;;3.10;2.70;;;;;;;20.12;31.13;100473.52;125385;1307;115041;-67
2023/05/05 16:42:36;;;;;;;5.90;2.60;;;;;;;20.07;31.19;100475.03;125551;1319;115065;-67
2023/05/05 16:46:30;;;;;;;3.20;2.90;;;;;;;20.05;31.09;100475.70;125038;1308;114810;-69
2023/05/05 16:50:10;;;;;;;;;;;;;;;19.99;30.94;100473.10;124958;1312;128848;-69
2023/05/05 16:53:33;;;;;;;6.80;3.10;;;;;;;19.97;31.21;100477.08;126019;1297;115237;-67
2023/05/05 16:57:21;;;;;;;;;;;;;;;;;;;;;
2023/05/05 17:01:16;;;;;;;5.20;2.20;;;;;;;19.87;30.98;100471.80;125382;1295;114934;-70
2023/05/05 17:04:59;;;;;;;;;;;;;;;;;;;;;
2023/05/05 17:08:59;;;;;;;;;;;;;;;;;;;;;
2023/05/05 17:13:00;;;;;;;6.10;3.00;;;;;;;19.56;31.33;100472.61;126536;1300;115554;-68
2023/05/05 17:16:19;;;;;;;6.40;3.20;;;;;;;19.42;31.52;100475.23;126419;1305;114919;-68
2023/05/05 17:19:53;;;;;;;10.00;2.80;;;;;;;19.30;31.86;100482.92;126712;1292;114948;-68
2023/05/05 17:24:00;;;;;;;8.10;5.90;;;;;;;19.17;32.07;100483.99;127130;1303;115016;-68
2023/05/05 17:27:26;;;;;;;;;;;;;;;;;;;;;
2023/05/05 17:31:28;;;;;;;5.50;3.40;;;;;;;18.93;32.64;100490.80;127201;1288;115387;-68
2023/05/05 17:35:10;;;;;;;9.00;3.20;;;;;;;18.81;33.03;100496.13;126749;1305;114952;-67
2023/05/05 17:38:58;;;;;;;6.60;3.30;;;;;;;18.71;33.31;100501.77;127624;1286;115090;-67
2023/05/05 17:43:03;;;;;;;7.40;4.00;;;;;;;18.59;33.40;100501.83;126872;1292;114794;-68
2023/05/05 17:46:53;;;;;;;;;;;;;;;;;;;;;
2023/05/05 17:50:53;;;;;;;;;;;;;;;;;;;;;
2023/05/05 17:54:42;;;;;;;8.80;3.50;;;;;;;18.27;33.78;100505.98;126687;1292;115016;-67
2023/05/05 17:58:28;;;;;;;;;;;;;;;;;;;;;
2023/05/05 18:02:27;;;;;;;13.20;4.10;;;;;;;18.07;34.16;100504.84;126587;1313;116687;-70
2023/05/05 18:06:27;;;;;;;10.20;4.30;;;;;;;17.94;35.02;100513.19;126779;1286;130819;-67
2023/05/05 18:10:27;;;;;;;14.50;5.00;;;;;;;17.78;35.96;100519.11;126561;1296;115272;-68
2023/05/05 18:14:32;;;;;;;12.70;4.90;;;;;;;17.64;37.14;100528.32;127416;1289;114923;-69
2023/05/05 18:18:14;;;;;;;7.40;5.00;;;;;;;17.47;37.85;100529.56;126602;1295;114941;-67
2023/05/05 18:22:11;;;;;;;10.00;5.00;;;;;;;17.32;38.36;100534.48;126519;1308;114860;-70
2023/05/05 18:25:37;;;;;;;;;;;;;;;;;;;;;
2023/05/05 18:29:15;;;;;;;;;;;;;;;;;;;;;
2023/05/05 18:33:10;;;;;;;12.20;6.00;;;;;;;16.92;39.80;100547.30;126126;1310;114975;-67
2023/05/05 18:37:04;;;;;;;20.10;6.00;;;;;;;16.79;40.30;100552.34;126524;1311;114980;-70
2023/05/05 18:41:05;;;;;;;10.10;5.30;;;;;;;16.68;40.70;100556.02;126626;1297;114855;-70
2023/05/05 18:44:57;;;;;;;;;;;;;;;;;;;;;
2023/05/05 18:48:39;;;;;;;15.20;4.90;;;;;;;16.46;41.58;100562.08;125601;1304;115330;-68
2023/05/05 18:52:41;;;;;;;18.80;6.70;;;;;;;16.36;41.69;100563.48;126044;1317;114910;-69
2023/05/05 18:56:02;;;;;;;12.90;6.00;;;;;;;16.25;41.69;100566.02;124858;1324;114959;-68
2023/05/05 18:59:46;;;;;;;14.00;5.20;;;;;;;16.17;42.20;100573.66;125111;1324;114942;-66
2023/05/05 19:08:09;;;;;;;13.70;6.60;;;;;;;15.96;42.87;100575.25;126270;1293;635757;-68
2023/05/05 19:12:11;;;;;;;17.80;7.90;;;;;;;15.82;42.94;100568.96;128075;1296;127693;-71
2023/05/05 19:15:43;;;;;;;;;;;;;;;;;;;;;
2023/05/05 19:19:08;;;;;;;;;;;;;;;;;;;;;
2023/05/05 19:23:05;;;;;;;;;;;;;;;;;;;;;
2023/05/05 19:31:00;;;;;;;18.50;7.60;;;;;;;15.23;44.69;100574.39;128517;1279;128922;-70
2023/05/05 19:34:51;;;;;;;;;;;;;;;;;;;;;
2023/05/05 19:38:42;;;;;;;;;;;;;;;;;;;;;
2023/05/05 19:42:02;;;;;;;9.70;5.90;;;;;;;14.89;45.74;100565.81;125261;1294;115011;-72
2023/05/05 19:46:00;;;;;;;12.60;4.80;;;;;;;14.81;45.81;100563.44;127635;1298;114848;-71
2023/05/05 19:49:51;;;;;;;9.00;5.40;;;;;;;14.70;46.16;100562.27;127119;1303;114786;-70
2023/05/05 19:53:26;;;;;;;;;;;;;;;;;;;;;
2023/05/05 19:57:15;;;;;;;13.50;5.20;;;;;;;14.50;46.42;100569.39;126897;1289;115274;-70
2023/05/05 20:00:42;;;;;;;11.40;6.00;;;;;;;14.41;46.93;100568.71;126140;1298;114949;-70
2023/05/05 20:04:35;;;;;;;;;;;;;;;;;;;;;
2023/05/05 20:08:38;;;;;;;17.80;6.40;;;;;;;14.18;47.47;100573.14;125425;1317;114865;-71
2023/05/05 20:16:44;;;;;;;15.70;6.40;;;;;;;13.98;47.59;100576.64;124766;1317;115051;-71
2023/05/05 20:20:44;;;;;;;9.80;5.50;;;;;;;13.89;48.11;100569.82;125195;1313;114887;-70
2023/05/05 20:24:39;;;;;;;10.50;6.50;;;;;;;13.81;48.30;100566.55;125371;1322;114972;-66
2023/05/05 20:28:41;;;;;;;15.40;6.50;;;;;;;13.74;48.62;100566.05;124880;1326;115013;-70
2023/05/05 20:32:43;;;;;;;9.60;5.60;;;;;;;13.66;48.83;100563.79;123841;1318;129109;-69
2023/05/05 20:36:35;;;;;;;10.60;6.20;;;;;;;13.60;48.56;100550.52;123774;1321;115399;-70
2023/05/05 20:44:44;;;;;;;;;;;;;;;;;;;;;
2023/05/05 20:48:20;;;;;;;15.00;7.00;;;;;;;13.42;49.36;100537.20;127529;1283;128989;-68
2023/05/05 20:52:18;;;;;;;;;;;;;;;;;;;;;
2023/05/05 20:56:01;;;;;;;14.90;5.70;;;;;;;13.26;49.89;100541.31;127175;1295;114898;-67
2023/05/05 21:00:02;;;;;;;9.10;5.80;;;;;;;13.19;50.07;100535.44;122860;1295;114976;-68
2023/05/05 21:03:59;;;;;;;;;;;;;;;;;;;;;
2023/05/05 21:07:32;;;;;;;;;;;;;;;;;;;;;
2023/05/05 21:11:34;;;;;;;23.60;9.60;;;;;;;12.98;50.76;100533.39;125192;1315;130386;-68
2023/05/05 21:15:20;;;;;;;15.30;6.40;;;;;;;12.90;51.08;100534.53;124743;1316;116485;-68
2023/05/05 21:19:01;;;;;;;12.80;6.10;;;;;;;12.83;51.52;100537.43;124394;1330;114882;-70
2023/05/05 21:27:18;;;;;;;12.60;6.00;;;;;;;12.73;51.64;100535.25;126324;1303;638340;-68
2023/05/05 21:31:25;;;;;;;16.40;6.20;;;;;;;12.66;52.02;100529.94;128872;1277;127966;-69
2023/05/05 21:35:13;;;;;;;;;;;;;;;;;;;;;
2023/05/05 21:39:17;;;;;;;12.10;5.70;;;;;;;12.53;52.41;100522.57;127495;1282;115000;-68
2023/05/05 21:43:17;;;;;;;16.30;7.30;;;;;;;12.46;52.46;100521.54;122282;1297;114910;-69
2023/05/05 21:47:18;;;;;;;17.00;6.80;;;;;;;12.39;53.03;100522.23;125557;1320;114932;-69
2023/05/05 21:51:21;;;;;;;15.00;6.50;;;;;;;12.34;53.14;100532.05;124196;1330;115316;-69
2023/05/05 21:58:42;;;;;;;14.10;6.10;;;;;;;12.23;53.49;100533.64;126358;1296;636176;-66